Time;durP1;ratioP1;P1;durP2;ratioP2;P2;SDS_P1;SDS_P2;PMS_P1;PMS_P2;Temp;Humidity;BMP_temperature;BMP_pressure;BME280_temperature;BME280_humidity;BME280_pressure;Samples;Min_cycle;Max_cycle;Signal;HPM_P1;HPM_P2
2024/04/11 00:00:20;;;;;;;4.30;3.90;;;11.60;86.10;;;;;;4815327;29;20205;-85
2024/04/11 00:25:34;;;;;;;5.03;2.97;;;11.40;85.50;;;;;;4753025;29;20364;-86
2024/04/11 01:21:26;;;;;;;4.80;2.20;;;10.60;83.00;;;;;;4614431;30;20721;-89
2024/04/11 02:02:09;;;;;;;4.83;2.77;;;9.80;84.10;;;;;;4836318;28;20773;-85
2024/04/11 02:26:52;;;;;;;5.53;2.40;;;9.80;83.50;;;;;;4579577;30;20586;-84
2024/04/11 03:12:34;;;;;;;6.00;3.40;;;8.70;86.60;;;;;;4646626;30;20452;-86
2024/04/11 03:38:19;;;;;;;6.87;4.30;;;8.90;92.00;;;;;;4780135;29;20472;-85
2024/04/11 04:19:01;;;;;;;8.27;4.67;;;8.50;99.60;;;;;;5697211;23;20267;-86
2024/04/11 04:23:22;;;;;;;5.73;4.57;;;8.50;99.90;;;;;;4834438;28;20283;-86
2024/04/11 04:53:45;;;;;;;9.97;5.10;;;8.60;99.90;;;;;;4705316;29;20226;-85
2024/04/11 05:09:28;;;;;;;9.73;4.47;;;9.10;99.90;;;;;;4739580;29;20209;-84
2024/04/11 05:34:52;;;;;;;7.07;3.03;;;10.50;86.10;;;;;;4811469;29;21027;-83
2024/04/11 05:54:51;;;;;;;6.10;2.60;;;11.00;78.50;;;;;;4621953;30;20227;-81
2024/04/11 06:25:33;;;;;;;4.33;2.60;;;11.80;74.80;;;;;;4539033;30;20285;-82
2024/04/11 06:50:53;;;;;;;3.63;2.30;;;11.90;70.00;;;;;;4536228;30;20909;-83
2024/04/11 07:10:46;;;;;;;5.30;2.57;;;12.40;70.10;;;;;;4628596;29;20794;-83
2024/04/11 07:36:09;;;;;;;6.67;3.33;;;12.60;72.80;;;;;;4428431;31;20704;-85
2024/04/11 08:06:41;;;;;;;4.53;2.63;;;12.90;66.80;;;;;;4539229;30;20623;-84
2024/04/11 08:27:14;;;;;;;3.57;2.20;;;13.00;66.00;;;;;;4606878;30;20213;-86
2024/04/11 08:52:15;;;;;;;4.00;2.40;;;13.20;65.60;;;;;;4574927;30;20398;-85
2024/04/11 09:17:39;;;;;;;5.73;2.23;;;13.30;63.40;;;;;;4586736;29;20220;-85
2024/04/11 09:48:41;;;;;;;3.40;2.30;;;13.60;62.60;;;;;;4731171;29;20462;-83
2024/04/11 10:13:55;;;;;;;3.70;2.30;;;13.80;61.70;;;;;;4621202;30;20318;-83
2024/04/11 10:39:16;;;;;;;5.07;2.27;;;14.00;60.60;;;;;;4596543;30;20221;-81
2024/04/11 11:04:50;;;;;;;2.50;1.93;;;14.70;59.90;;;;;;4682169;30;20236;-85
2024/04/11 13:27:28;;;;;;;6.77;2.63;;;17.50;52.10;;;;;;4788819;28;20489;-81
2024/04/11 13:53:04;;;;;;;4.33;2.67;;;18.20;52.70;;;;;;4784982;28;20888;-83
2024/04/11 14:37:56;;;;;;;6.40;2.33;;;20.10;49.90;;;;;;4770765;28;20580;-82
2024/04/11 14:58:59;;;;;;;4.70;2.55;;;21.60;46.20;;;;;;4769709;29;20598;-84
2024/04/11 15:03:18;;;;;;;3.92;2.22;;;21.80;46.10;;;;;;4739410;29;20499;-88
2024/04/11 15:18:45;;;;;;;3.30;2.00;;;18.10;47.60;;;;;;4652066;29;20569;-85
2024/04/11 15:39:16;;;;;;;3.63;2.60;;;16.60;50.20;;;;;;4547223;30;20281;-84
2024/04/11 15:59:38;;;;;;;3.20;2.83;;;16.30;50.50;;;;;;4590701;30;20226;-84
2024/04/11 16:20:15;;;;;;;5.87;3.00;;;16.40;50.70;;;;;;4735749;29;20235;-83
2024/04/11 16:24:40;;;;;;;5.50;2.83;;;16.30;51.70;;;;;;4609262;29;20400;-85
2024/04/11 16:50:27;;;;;;;5.90;3.10;;;15.40;53.10;;;;;;4679448;29;20773;-85
2024/04/11 17:10:16;;;;;;;5.70;3.20;;;15.00;53.70;;;;;;4685210;29;20558;-88
2024/04/11 17:35:57;;;;;;;9.57;6.20;;;13.80;56.40;;;;;;4590362;30;20656;-86
2024/04/11 18:16:52;;;;;;;8.00;6.30;;;12.30;83.00;;;;;;4871151;29;20260;-84
2024/04/11 18:21:12;;;;;;;9.43;5.80;;;12.00;83.20;;;;;;4823201;29;20324;-86
2024/04/11 18:51:58;;;;;;;11.73;5.53;;;11.20;91.00;;;;;;4724821;29;20599;-84
2024/04/11 19:12:31;;;;;;;11.03;5.77;;;10.80;92.40;;;;;;4762744;29;20280;-87
2024/04/11 19:37:34;;;;;;;14.83;8.70;;;10.40;99.90;;;;;;4693513;29;20327;-85
2024/04/11 20:02:57;;;;;;;13.10;7.00;;;9.50;99.90;;;;;;4840157;28;20205;-85
2024/04/11 20:28:30;;;;;;;16.43;8.20;;;10.30;99.90;;;;;;4672640;30;20251;-87
2024/04/11 21:33:54;;;;;;;11.57;7.40;;;11.80;92.40;;;;;;4590935;30;20246;-87
2024/04/11 21:49:38;;;;;;;9.43;7.03;;;11.80;93.80;;;;;;4595786;30;20298;-87
2024/04/11 22:14:45;;;;;;;12.23;6.60;;;12.20;87.10;;;;;;4819409;29;20268;-87
2024/04/11 22:34:47;;;;;;;8.87;6.43;;;12.30;84.20;;;;;;4694721;29;21207;-86
2024/04/11 23:00:29;;;;;;;7.50;6.47;;;11.90;86.00;;;;;;4650389;29;20226;-87
2024/04/11 23:31:06;;;;;;;7.73;5.90;;;12.70;81.40;;;;;;4803898;29;20194;-88
